sensor_id;sensor_type;location;lat;lon;timestamp;temperature;humidity
736;DHT22;352;48.626;9.238;2023-04-24T00:00:05;12.60;99.90
736;DHT22;352;48.626;9.238;2023-04-24T00:02:33;12.60;99.90
736;DHT22;352;48.626;9.238;2023-04-24T00:05:00;12.60;99.90
736;DHT22;352;48.626;9.238;2023-04-24T00:07:28;12.50;99.90
736;DHT22;352;48.626;9.238;2023-04-24T00:09:55;12.50;99.90
736;DHT22;352;48.626;9.238;2023-04-24T00:12:21;12.50;99.90
736;DHT22;352;48.626;9.238;2023-04-24T00:14:48;12.50;99.90
736;DHT22;352;48.626;9.238;2023-04-24T00:17:15;12.50;99.90
736;DHT22;352;48.626;9.238;2023-04-24T00:19:46;12.40;99.90
736;DHT22;352;48.626;9.238;2023-04-24T00:22:13;12.40;99.90
736;DHT22;352;48.626;9.238;2023-04-24T00:24:40;12.40;99.90
736;DHT22;352;48.626;9.238;2023-04-24T00:27:07;12.40;99.90
736;DHT22;352;48.626;9.238;2023-04-24T00:29:34;12.50;99.90
736;DHT22;352;48.626;9.238;2023-04-24T00:32:00;12.50;99.90
736;DHT22;352;48.626;9.238;2023-04-24T00:34:27;12.50;99.90
736;DHT22;352;48.626;9.238;2023-04-24T00:36:55;12.50;99.90
736;DHT22;352;48.626;9.238;2023-04-24T00:39:22;12.50;99.90
736;DHT22;352;48.626;9.238;2023-04-24T00:41:49;12.50;99.90
736;DHT22;352;48.626;9.238;2023-04-24T00:44:16;12.50;99.90
736;DHT22;352;48.626;9.238;2023-04-24T00:46:43;12.50;99.90
736;DHT22;352;48.626;9.238;2023-04-24T00:49:10;12.50;99.90
736;DHT22;352;48.626;9.238;2023-04-24T00:51:38;12.50;99.90
736;DHT22;352;48.626;9.238;2023-04-24T00:54:07;12.60;99.90
736;DHT22;352;48.626;9.238;2023-04-24T00:56:34;12.60;99.90
736;DHT22;352;48.626;9.238;2023-04-24T00:59:01;12.60;99.90
736;DHT22;352;48.626;9.238;2023-04-24T01:01:28;12.60;99.90
736;DHT22;352;48.626;9.238;2023-04-24T01:03:56;12.60;99.90
736;DHT22;352;48.626;9.238;2023-04-24T01:06:27;12.60;99.90
736;DHT22;352;48.626;9.238;2023-04-24T01:08:56;12.60;99.90
736;DHT22;352;48.626;9.238;2023-04-24T01:11:25;12.60;99.90
736;DHT22;352;48.626;9.238;2023-04-24T01:13:51;12.60;99.90
736;DHT22;352;48.626;9.238;2023-04-24T01:16:19;12.60;99.90
736;DHT22;352;48.626;9.238;2023-04-24T01:18:46;12.60;99.90
736;DHT22;352;48.626;9.238;2023-04-24T01:21:14;12.60;99.90
736;DHT22;352;48.626;9.238;2023-04-24T01:23:43;12.70;99.90
736;DHT22;352;48.626;9.238;2023-04-24T01:26:09;12.60;99.90
736;DHT22;352;48.626;9.238;2023-04-24T01:28:37;12.70;99.90
736;DHT22;352;48.626;9.238;2023-04-24T01:31:04;12.70;99.90
736;DHT22;352;48.626;9.238;2023-04-24T01:33:31;12.70;99.90
736;DHT22;352;48.626;9.238;2023-04-24T01:35:58;12.70;99.90
736;DHT22;352;48.626;9.238;2023-04-24T01:38:24;12.70;99.90
736;DHT22;352;48.626;9.238;2023-04-24T01:40:53;12.60;99.90
736;DHT22;352;48.626;9.238;2023-04-24T01:43:19;12.60;99.90
736;DHT22;352;48.626;9.238;2023-04-24T01:45:46;12.60;99.90
736;DHT22;352;48.626;9.238;2023-04-24T01:48:13;12.60;99.90
736;DHT22;352;48.626;9.238;2023-04-24T01:50:40;12.70;99.90
736;DHT22;352;48.626;9.238;2023-04-24T01:53:07;12.60;99.90
736;DHT22;352;48.626;9.238;2023-04-24T01:55:34;12.60;99.90
736;DHT22;352;48.626;9.238;2023-04-24T01:58:02;12.60;99.90
736;DHT22;352;48.626;9.238;2023-04-24T02:00:28;12.60;99.90
736;DHT22;352;48.626;9.238;2023-04-24T02:02:55;12.60;99.90
736;DHT22;352;48.626;9.238;2023-04-24T02:05:22;12.60;99.90
736;DHT22;352;48.626;9.238;2023-04-24T02:07:49;12.60;99.90
736;DHT22;352;48.626;9.238;2023-04-24T02:10:15;12.60;99.90
736;DHT22;352;48.626;9.238;2023-04-24T02:12:42;12.60;99.90
736;DHT22;352;48.626;9.238;2023-04-24T02:15:11;12.70;99.90
736;DHT22;352;48.626;9.238;2023-04-24T02:17:38;12.70;99.90
736;DHT22;352;48.626;9.238;2023-04-24T02:20:06;12.70;99.90
736;DHT22;352;48.626;9.238;2023-04-24T02:22:33;12.60;99.90
736;DHT22;352;48.626;9.238;2023-04-24T02:25:00;12.70;99.90
736;DHT22;352;48.626;9.238;2023-04-24T02:27:27;12.60;99.90
736;DHT22;352;48.626;9.238;2023-04-24T02:29:53;12.60;99.90
736;DHT22;352;48.626;9.238;2023-04-24T02:32:22;12.50;99.90
736;DHT22;352;48.626;9.238;2023-04-24T02:34:48;12.50;99.90
736;DHT22;352;48.626;9.238;2023-04-24T02:37:15;12.40;99.90
736;DHT22;352;48.626;9.238;2023-04-24T02:39:42;12.40;99.90
736;DHT22;352;48.626;9.238;2023-04-24T02:42:09;12.30;99.90
736;DHT22;352;48.626;9.238;2023-04-24T02:44:35;12.30;99.90
736;DHT22;352;48.626;9.238;2023-04-24T02:47:02;12.20;99.90
736;DHT22;352;48.626;9.238;2023-04-24T02:49:30;12.20;99.90
736;DHT22;352;48.626;9.238;2023-04-24T02:51:57;12.20;99.90
736;DHT22;352;48.626;9.238;2023-04-24T02:54:24;12.20;99.90
736;DHT22;352;48.626;9.238;2023-04-24T02:56:51;12.20;99.90
736;DHT22;352;48.626;9.238;2023-04-24T02:59:17;12.20;99.90
736;DHT22;352;48.626;9.238;2023-04-24T03:01:44;12.20;99.90
736;DHT22;352;48.626;9.238;2023-04-24T03:04:11;12.30;99.90
736;DHT22;352;48.626;9.238;2023-04-24T03:06:39;12.30;99.90
736;DHT22;352;48.626;9.238;2023-04-24T03:09:06;12.30;99.90
736;DHT22;352;48.626;9.238;2023-04-24T03:11:32;12.30;99.90
736;DHT22;352;48.626;9.238;2023-04-24T03:13:59;12.30;99.90
736;DHT22;352;48.626;9.238;2023-04-24T03:16:26;12.30;99.90
736;DHT22;352;48.626;9.238;2023-04-24T03:18:52;12.30;99.90
736;DHT22;352;48.626;9.238;2023-04-24T03:21:19;12.30;99.90
736;DHT22;352;48.626;9.238;2023-04-24T03:23:47;12.30;99.90
736;DHT22;352;48.626;9.238;2023-04-24T03:26:14;12.20;99.90
736;DHT22;352;48.626;9.238;2023-04-24T03:28:40;12.20;99.90
736;DHT22;352;48.626;9.238;2023-04-24T03:31:07;12.20;99.90
736;DHT22;352;48.626;9.238;2023-04-24T03:33:34;12.20;99.90
736;DHT22;352;48.626;9.238;2023-04-24T03:36:01;12.20;99.90
736;DHT22;352;48.626;9.238;2023-04-24T03:38:28;12.20;99.90
736;DHT22;352;48.626;9.238;2023-04-24T03:40:56;12.20;99.90
736;DHT22;352;48.626;9.238;2023-04-24T03:43:22;12.20;99.90
736;DHT22;352;48.626;9.238;2023-04-24T03:45:49;12.20;99.90
736;DHT22;352;48.626;9.238;2023-04-24T03:48:16;12.20;99.90
736;DHT22;352;48.626;9.238;2023-04-24T03:50:42;12.10;99.90
736;DHT22;352;48.626;9.238;2023-04-24T03:53:09;12.10;99.90
736;DHT22;352;48.626;9.238;2023-04-24T03:55:36;12.10;99.90
736;DHT22;352;48.626;9.238;2023-04-24T03:58:04;12.00;99.90
736;DHT22;352;48.626;9.238;2023-04-24T04:00:31;12.00;99.90
736;DHT22;352;48.626;9.238;2023-04-24T04:02:58;11.90;99.90
736;DHT22;352;48.626;9.238;2023-04-24T04:05:25;11.90;99.90
736;DHT22;352;48.626;9.238;2023-04-24T04:07:51;11.80;99.90
736;DHT22;352;48.626;9.238;2023-04-24T04:10:18;11.80;99.90
736;DHT22;352;48.626;9.238;2023-04-24T04:12:45;11.70;99.90
736;DHT22;352;48.626;9.238;2023-04-24T04:15:13;11.70;99.90
736;DHT22;352;48.626;9.238;2023-04-24T04:17:40;11.60;99.90
736;DHT22;352;48.626;9.238;2023-04-24T04:20:07;11.60;99.90
736;DHT22;352;48.626;9.238;2023-04-24T04:22:35;11.60;99.90
736;DHT22;352;48.626;9.238;2023-04-24T04:25:02;11.60;99.90
736;DHT22;352;48.626;9.238;2023-04-24T04:29:57;11.60;99.90
736;DHT22;352;48.626;9.238;2023-04-24T04:32:26;11.60;99.90
736;DHT22;352;48.626;9.238;2023-04-24T04:34:53;11.60;99.90
736;DHT22;352;48.626;9.238;2023-04-24T04:37:19;11.60;99.90
736;DHT22;352;48.626;9.238;2023-04-24T04:39:46;11.60;99.90
736;DHT22;352;48.626;9.238;2023-04-24T04:42:13;11.60;99.90
736;DHT22;352;48.626;9.238;2023-04-24T04:44:40;11.60;99.90
736;DHT22;352;48.626;9.238;2023-04-24T04:47:08;11.60;99.90
736;DHT22;352;48.626;9.238;2023-04-24T04:49:37;11.60;99.90
736;DHT22;352;48.626;9.238;2023-04-24T04:52:04;11.60;99.90
736;DHT22;352;48.626;9.238;2023-04-24T04:54:31;11.70;99.90
736;DHT22;352;48.626;9.238;2023-04-24T04:56:58;11.70;99.90
736;DHT22;352;48.626;9.238;2023-04-24T04:59:26;11.70;99.90
736;DHT22;352;48.626;9.238;2023-04-24T05:01:52;11.70;99.90
736;DHT22;352;48.626;9.238;2023-04-24T05:04:19;11.70;99.90
736;DHT22;352;48.626;9.238;2023-04-24T05:06:47;11.60;99.90
736;DHT22;352;48.626;9.238;2023-04-24T05:09:16;11.50;99.90
736;DHT22;352;48.626;9.238;2023-04-24T05:11:43;11.40;99.90
736;DHT22;352;48.626;9.238;2023-04-24T05:14:09;11.40;99.90
736;DHT22;352;48.626;9.238;2023-04-24T05:16:37;11.40;99.90
736;DHT22;352;48.626;9.238;2023-04-24T05:19:04;11.30;99.90
736;DHT22;352;48.626;9.238;2023-04-24T05:21:31;11.30;99.90
736;DHT22;352;48.626;9.238;2023-04-24T05:23:59;11.30;99.90
736;DHT22;352;48.626;9.238;2023-04-24T05:26:26;11.30;99.90
736;DHT22;352;48.626;9.238;2023-04-24T05:28:53;11.30;99.90
736;DHT22;352;48.626;9.238;2023-04-24T05:31:19;11.30;99.90
736;DHT22;352;48.626;9.238;2023-04-24T05:33:46;11.20;99.90
736;DHT22;352;48.626;9.238;2023-04-24T05:36:13;11.30;99.90
736;DHT22;352;48.626;9.238;2023-04-24T05:38:39;11.20;99.90
736;DHT22;352;48.626;9.238;2023-04-24T05:41:08;11.30;99.90
736;DHT22;352;48.626;9.238;2023-04-24T05:43:34;11.20;99.90
736;DHT22;352;48.626;9.238;2023-04-24T05:46:01;11.20;99.90
736;DHT22;352;48.626;9.238;2023-04-24T05:48:28;11.20;99.90
736;DHT22;352;48.626;9.238;2023-04-24T05:50:55;11.20;99.90
736;DHT22;352;48.626;9.238;2023-04-24T05:53:21;11.30;99.90
736;DHT22;352;48.626;9.238;2023-04-24T05:55:48;11.30;99.90
736;DHT22;352;48.626;9.238;2023-04-24T05:58:16;11.30;99.90
736;DHT22;352;48.626;9.238;2023-04-24T06:00:43;11.30;99.90
736;DHT22;352;48.626;9.238;2023-04-24T06:03:11;11.30;99.90
736;DHT22;352;48.626;9.238;2023-04-24T06:05:38;11.30;99.90
736;DHT22;352;48.626;9.238;2023-04-24T06:08:05;11.40;99.90
736;DHT22;352;48.626;9.238;2023-04-24T06:10:32;11.40;99.90
736;DHT22;352;48.626;9.238;2023-04-24T06:12:58;11.50;99.90
736;DHT22;352;48.626;9.238;2023-04-24T06:15:29;11.50;99.90
736;DHT22;352;48.626;9.238;2023-04-24T06:17:56;11.60;99.90
736;DHT22;352;48.626;9.238;2023-04-24T06:20:24;11.70;99.90
736;DHT22;352;48.626;9.238;2023-04-24T06:22:51;11.80;99.90
736;DHT22;352;48.626;9.238;2023-04-24T06:25:18;12.10;99.90
736;DHT22;352;48.626;9.238;2023-04-24T06:27:44;13.00;99.90
736;DHT22;352;48.626;9.238;2023-04-24T06:30:12;13.10;99.90
736;DHT22;352;48.626;9.238;2023-04-24T06:32:40;13.80;99.90
736;DHT22;352;48.626;9.238;2023-04-24T06:35:07;14.50;99.90
736;DHT22;352;48.626;9.238;2023-04-24T06:37:35;15.90;99.90
736;DHT22;352;48.626;9.238;2023-04-24T06:40:02;15.80;99.90
736;DHT22;352;48.626;9.238;2023-04-24T06:42:28;16.60;99.90
736;DHT22;352;48.626;9.238;2023-04-24T06:44:55;17.10;99.90
736;DHT22;352;48.626;9.238;2023-04-24T06:47:22;17.70;99.90
736;DHT22;352;48.626;9.238;2023-04-24T06:49:50;18.30;99.90
736;DHT22;352;48.626;9.238;2023-04-24T06:52:18;18.50;99.90
736;DHT22;352;48.626;9.238;2023-04-24T06:54:45;19.00;99.90
736;DHT22;352;48.626;9.238;2023-04-24T06:57:11;19.40;98.80
736;DHT22;352;48.626;9.238;2023-04-24T06:59:38;19.70;98.60
736;DHT22;352;48.626;9.238;2023-04-24T07:02:05;20.20;98.30
736;DHT22;352;48.626;9.238;2023-04-24T07:04:31;19.80;95.80
736;DHT22;352;48.626;9.238;2023-04-24T07:06:59;19.10;98.40
736;DHT22;352;48.626;9.238;2023-04-24T07:09:26;18.50;98.30
736;DHT22;352;48.626;9.238;2023-04-24T07:11:53;17.80;99.40
736;DHT22;352;48.626;9.238;2023-04-24T07:14:21;17.30;99.90
736;DHT22;352;48.626;9.238;2023-04-24T07:16:48;17.00;99.90
736;DHT22;352;48.626;9.238;2023-04-24T07:19:15;17.30;99.90
736;DHT22;352;48.626;9.238;2023-04-24T07:21:42;17.20;99.90
736;DHT22;352;48.626;9.238;2023-04-24T07:24:10;16.90;99.90
736;DHT22;352;48.626;9.238;2023-04-24T07:26:38;16.30;99.90
736;DHT22;352;48.626;9.238;2023-04-24T07:29:05;16.00;99.90
736;DHT22;352;48.626;9.238;2023-04-24T07:31:32;15.50;99.90
736;DHT22;352;48.626;9.238;2023-04-24T07:33:59;15.10;99.90
736;DHT22;352;48.626;9.238;2023-04-24T07:36:25;14.80;99.90
736;DHT22;352;48.626;9.238;2023-04-24T07:38:54;14.70;99.90
736;DHT22;352;48.626;9.238;2023-04-24T07:41:22;14.40;99.90
736;DHT22;352;48.626;9.238;2023-04-24T07:43:49;14.20;99.90
736;DHT22;352;48.626;9.238;2023-04-24T07:46:16;14.70;99.90
736;DHT22;352;48.626;9.238;2023-04-24T07:48:43;16.50;99.90
736;DHT22;352;48.626;9.238;2023-04-24T07:51:10;18.30;99.90
736;DHT22;352;48.626;9.238;2023-04-24T07:53:38;19.60;99.90
736;DHT22;352;48.626;9.238;2023-04-24T07:56:05;20.80;99.70
736;DHT22;352;48.626;9.238;2023-04-24T07:58:33;21.10;98.10
736;DHT22;352;48.626;9.238;2023-04-24T08:01:00;20.80;97.20
736;DHT22;352;48.626;9.238;2023-04-24T08:03:27;19.80;98.00
736;DHT22;352;48.626;9.238;2023-04-24T08:05:53;19.60;99.80
736;DHT22;352;48.626;9.238;2023-04-24T08:08:22;20.20;99.90
736;DHT22;352;48.626;9.238;2023-04-24T08:10:49;21.20;97.70
736;DHT22;352;48.626;9.238;2023-04-24T08:13:15;21.00;96.70
736;DHT22;352;48.626;9.238;2023-04-24T08:15:43;20.10;96.30
736;DHT22;352;48.626;9.238;2023-04-24T08:18:10;19.20;96.50
736;DHT22;352;48.626;9.238;2023-04-24T08:20:39;18.80;98.30
736;DHT22;352;48.626;9.238;2023-04-24T08:23:05;18.50;97.80
736;DHT22;352;48.626;9.238;2023-04-24T08:25:32;18.10;98.50
736;DHT22;352;48.626;9.238;2023-04-24T08:28:01;17.80;98.90
736;DHT22;352;48.626;9.238;2023-04-24T08:30:28;17.50;99.50
736;DHT22;352;48.626;9.238;2023-04-24T08:32:56;17.20;98.30
736;DHT22;352;48.626;9.238;2023-04-24T08:35:23;17.00;97.30
736;DHT22;352;48.626;9.238;2023-04-24T08:37:51;16.80;98.40
736;DHT22;352;48.626;9.238;2023-04-24T08:40:20;16.90;97.10
736;DHT22;352;48.626;9.238;2023-04-24T08:42:49;17.30;98.60
736;DHT22;352;48.626;9.238;2023-04-24T08:45:19;17.70;96.10
736;DHT22;352;48.626;9.238;2023-04-24T08:47:46;18.40;94.70
736;DHT22;352;48.626;9.238;2023-04-24T08:50:14;18.40;93.50
736;DHT22;352;48.626;9.238;2023-04-24T08:52:42;18.70;93.10
736;DHT22;352;48.626;9.238;2023-04-24T08:55:09;19.00;91.90
736;DHT22;352;48.626;9.238;2023-04-24T08:57:36;19.20;90.60
736;DHT22;352;48.626;9.238;2023-04-24T09:00:06;19.20;91.10
736;DHT22;352;48.626;9.238;2023-04-24T09:02:34;19.20;89.20
736;DHT22;352;48.626;9.238;2023-04-24T09:05:01;18.90;92.30
736;DHT22;352;48.626;9.238;2023-04-24T09:07:30;18.70;91.60
736;DHT22;352;48.626;9.238;2023-04-24T09:09:59;18.50;92.40
736;DHT22;352;48.626;9.238;2023-04-24T09:12:26;18.20;92.00
736;DHT22;352;48.626;9.238;2023-04-24T09:14:53;17.90;91.40
736;DHT22;352;48.626;9.238;2023-04-24T09:17:21;17.80;91.40
736;DHT22;352;48.626;9.238;2023-04-24T09:19:49;17.80;91.80
736;DHT22;352;48.626;9.238;2023-04-24T09:22:16;18.10;92.60
736;DHT22;352;48.626;9.238;2023-04-24T09:24:45;18.60;92.40
736;DHT22;352;48.626;9.238;2023-04-24T09:27:12;18.90;89.70
736;DHT22;352;48.626;9.238;2023-04-24T09:29:53;18.90;87.20
736;DHT22;352;48.626;9.238;2023-04-24T09:32:21;18.80;85.40
736;DHT22;352;48.626;9.238;2023-04-24T09:35:04;19.10;86.10
736;DHT22;352;48.626;9.238;2023-04-24T09:37:35;20.20;84.50
736;DHT22;352;48.626;9.238;2023-04-24T09:40:15;20.20;85.40
736;DHT22;352;48.626;9.238;2023-04-24T09:42:44;20.70;83.20
736;DHT22;352;48.626;9.238;2023-04-24T09:45:11;21.00;81.00
736;DHT22;352;48.626;9.238;2023-04-24T09:47:38;20.70;80.20
736;DHT22;352;48.626;9.238;2023-04-24T09:50:13;20.70;80.20
736;DHT22;352;48.626;9.238;2023-04-24T09:52:42;20.40;77.00
736;DHT22;352;48.626;9.238;2023-04-24T09:55:17;20.00;76.90
736;DHT22;352;48.626;9.238;2023-04-24T09:57:48;19.40;75.90
736;DHT22;352;48.626;9.238;2023-04-24T10:00:18;19.30;77.70
736;DHT22;352;48.626;9.238;2023-04-24T10:02:49;19.10;74.80
736;DHT22;352;48.626;9.238;2023-04-24T10:05:17;19.50;76.40
736;DHT22;352;48.626;9.238;2023-04-24T10:07:44;20.00;72.90
736;DHT22;352;48.626;9.238;2023-04-24T10:10:11;20.60;74.90
736;DHT22;352;48.626;9.238;2023-04-24T10:12:40;21.10;72.50
736;DHT22;352;48.626;9.238;2023-04-24T10:15:10;21.50;73.90
736;DHT22;352;48.626;9.238;2023-04-24T10:17:38;22.20;71.10
736;DHT22;352;48.626;9.238;2023-04-24T10:20:06;22.30;73.00
736;DHT22;352;48.626;9.238;2023-04-24T10:22:33;22.70;71.20
736;DHT22;352;48.626;9.238;2023-04-24T10:25:03;22.70;66.40
736;DHT22;352;48.626;9.238;2023-04-24T10:27:31;22.00;63.70
736;DHT22;352;48.626;9.238;2023-04-24T10:30:00;21.90;64.10
736;DHT22;352;48.626;9.238;2023-04-24T10:32:28;21.40;64.00
736;DHT22;352;48.626;9.238;2023-04-24T10:34:55;20.80;65.10
736;DHT22;352;48.626;9.238;2023-04-24T10:37:23;20.60;66.20
736;DHT22;352;48.626;9.238;2023-04-24T10:39:50;20.40;67.90
736;DHT22;352;48.626;9.238;2023-04-24T10:42:20;20.40;68.40
736;DHT22;352;48.626;9.238;2023-04-24T10:44:47;20.70;71.50
736;DHT22;352;48.626;9.238;2023-04-24T10:47:15;21.10;68.00
736;DHT22;352;48.626;9.238;2023-04-24T10:49:42;21.30;68.30
736;DHT22;352;48.626;9.238;2023-04-24T10:52:09;21.20;67.30
736;DHT22;352;48.626;9.238;2023-04-24T10:54:42;20.90;68.40
736;DHT22;352;48.626;9.238;2023-04-24T10:57:26;20.50;67.70
736;DHT22;352;48.626;9.238;2023-04-24T11:00:16;20.30;68.90
736;DHT22;352;48.626;9.238;2023-04-24T11:02:46;20.10;71.30
736;DHT22;352;48.626;9.238;2023-04-24T11:05:16;20.00;72.90
736;DHT22;352;48.626;9.238;2023-04-24T11:08:12;19.80;71.20
736;DHT22;352;48.626;9.238;2023-04-24T11:10:40;19.50;70.10
736;DHT22;352;48.626;9.238;2023-04-24T11:13:07;19.20;71.60
736;DHT22;352;48.626;9.238;2023-04-24T11:15:34;19.00;72.50
736;DHT22;352;48.626;9.238;2023-04-24T11:18:03;18.80;75.50
736;DHT22;352;48.626;9.238;2023-04-24T11:20:29;18.60;75.10
736;DHT22;352;48.626;9.238;2023-04-24T11:23:03;18.50;77.00
736;DHT22;352;48.626;9.238;2023-04-24T11:25:31;18.50;78.70
736;DHT22;352;48.626;9.238;2023-04-24T11:28:03;18.50;77.50
736;DHT22;352;48.626;9.238;2023-04-24T11:30:32;18.50;76.50
736;DHT22;352;48.626;9.238;2023-04-24T11:33:03;18.40;75.00
736;DHT22;352;48.626;9.238;2023-04-24T11:35:35;18.30;77.40
736;DHT22;352;48.626;9.238;2023-04-24T11:38:03;18.20;76.90
736;DHT22;352;48.626;9.238;2023-04-24T11:40:30;18.20;75.90
736;DHT22;352;48.626;9.238;2023-04-24T11:42:59;18.00;74.50
736;DHT22;352;48.626;9.238;2023-04-24T11:45:28;17.90;78.30
736;DHT22;352;48.626;9.238;2023-04-24T11:47:54;17.80;76.70
736;DHT22;352;48.626;9.238;2023-04-24T11:50:24;17.80;75.30
736;DHT22;352;48.626;9.238;2023-04-24T11:52:52;17.70;77.80
736;DHT22;352;48.626;9.238;2023-04-24T11:55:24;17.60;77.30
736;DHT22;352;48.626;9.238;2023-04-24T11:57:54;17.50;76.40
736;DHT22;352;48.626;9.238;2023-04-24T12:00:23;17.40;76.40
736;DHT22;352;48.626;9.238;2023-04-24T12:02:50;17.40;77.00
736;DHT22;352;48.626;9.238;2023-04-24T12:05:20;17.50;80.20
736;DHT22;352;48.626;9.238;2023-04-24T12:07:48;17.90;76.50
736;DHT22;352;48.626;9.238;2023-04-24T12:10:20;17.90;76.70
736;DHT22;352;48.626;9.238;2023-04-24T12:12:47;17.90;75.20
736;DHT22;352;48.626;9.238;2023-04-24T12:15:16;18.00;76.80
736;DHT22;352;48.626;9.238;2023-04-24T12:17:44;18.00;75.60
736;DHT22;352;48.626;9.238;2023-04-24T12:20:12;17.90;76.10
736;DHT22;352;48.626;9.238;2023-04-24T12:22:46;17.90;76.70
736;DHT22;352;48.626;9.238;2023-04-24T12:25:15;17.80;77.20
736;DHT22;352;48.626;9.238;2023-04-24T12:27:42;17.70;77.50
736;DHT22;352;48.626;9.238;2023-04-24T12:30:12;17.60;77.90
736;DHT22;352;48.626;9.238;2023-04-24T12:32:41;17.50;76.80
736;DHT22;352;48.626;9.238;2023-04-24T12:35:09;17.40;77.30
736;DHT22;352;48.626;9.238;2023-04-24T12:37:36;17.40;75.90
736;DHT22;352;48.626;9.238;2023-04-24T12:40:06;17.30;76.10
736;DHT22;352;48.626;9.238;2023-04-24T12:42:35;17.30;75.50
736;DHT22;352;48.626;9.238;2023-04-24T12:45:04;17.20;77.70
736;DHT22;352;48.626;9.238;2023-04-24T12:47:32;17.00;84.70
736;DHT22;352;48.626;9.238;2023-04-24T12:49:59;17.00;78.20
736;DHT22;352;48.626;9.238;2023-04-24T12:52:27;17.00;78.70
736;DHT22;352;48.626;9.238;2023-04-24T12:54:55;17.00;77.60
736;DHT22;352;48.626;9.238;2023-04-24T12:57:22;16.90;79.40
736;DHT22;352;48.626;9.238;2023-04-24T12:59:54;16.90;78.40
736;DHT22;352;48.626;9.238;2023-04-24T13:02:22;16.90;79.50
736;DHT22;352;48.626;9.238;2023-04-24T13:04:50;17.00;79.30
736;DHT22;352;48.626;9.238;2023-04-24T13:07:17;16.90;80.50
736;DHT22;352;48.626;9.238;2023-04-24T13:09:44;16.90;82.30
736;DHT22;352;48.626;9.238;2023-04-24T13:12:12;16.90;82.20
736;DHT22;352;48.626;9.238;2023-04-24T13:14:39;16.90;84.50
736;DHT22;352;48.626;9.238;2023-04-24T13:17:07;17.00;82.50
736;DHT22;352;48.626;9.238;2023-04-24T13:19:36;17.00;84.80
736;DHT22;352;48.626;9.238;2023-04-24T13:22:03;17.00;84.90
736;DHT22;352;48.626;9.238;2023-04-24T13:24:30;17.10;83.10
736;DHT22;352;48.626;9.238;2023-04-24T13:26:57;17.20;80.10
736;DHT22;352;48.626;9.238;2023-04-24T13:29:26;17.20;79.30
736;DHT22;352;48.626;9.238;2023-04-24T13:31:53;17.20;79.90
736;DHT22;352;48.626;9.238;2023-04-24T13:34:22;17.20;79.60
736;DHT22;352;48.626;9.238;2023-04-24T13:36:49;17.20;79.90
736;DHT22;352;48.626;9.238;2023-04-24T13:39:16;17.10;80.80
736;DHT22;352;48.626;9.238;2023-04-24T13:41:43;17.20;79.70
736;DHT22;352;48.626;9.238;2023-04-24T13:44:10;17.10;79.30
736;DHT22;352;48.626;9.238;2023-04-24T13:46:37;17.10;79.90
736;DHT22;352;48.626;9.238;2023-04-24T13:49:04;17.10;79.30
736;DHT22;352;48.626;9.238;2023-04-24T13:51:32;17.10;79.60
736;DHT22;352;48.626;9.238;2023-04-24T13:53:59;17.00;79.20
736;DHT22;352;48.626;9.238;2023-04-24T13:56:26;17.00;77.90
736;DHT22;352;48.626;9.238;2023-04-24T13:58:53;16.90;79.80
736;DHT22;352;48.626;9.238;2023-04-24T14:01:20;16.90;79.60
736;DHT22;352;48.626;9.238;2023-04-24T14:03:49;16.80;79.60
736;DHT22;352;48.626;9.238;2023-04-24T14:06:16;16.70;79.90
736;DHT22;352;48.626;9.238;2023-04-24T14:08:44;16.60;82.10
736;DHT22;352;48.626;9.238;2023-04-24T14:11:11;16.60;80.70
736;DHT22;352;48.626;9.238;2023-04-24T14:13:38;16.50;81.20
736;DHT22;352;48.626;9.238;2023-04-24T14:16:07;16.50;79.60
736;DHT22;352;48.626;9.238;2023-04-24T14:18:33;16.40;80.10
736;DHT22;352;48.626;9.238;2023-04-24T14:21:01;16.40;81.80
736;DHT22;352;48.626;9.238;2023-04-24T14:23:28;16.30;82.20
736;DHT22;352;48.626;9.238;2023-04-24T14:25:56;16.30;81.40
736;DHT22;352;48.626;9.238;2023-04-24T14:28:23;16.20;81.50
736;DHT22;352;48.626;9.238;2023-04-24T14:30:50;16.10;81.90
736;DHT22;352;48.626;9.238;2023-04-24T14:33:17;16.10;81.40
736;DHT22;352;48.626;9.238;2023-04-24T14:35:44;16.10;81.20
736;DHT22;352;48.626;9.238;2023-04-24T14:38:12;16.10;80.00
736;DHT22;352;48.626;9.238;2023-04-24T14:40:40;16.00;81.50
736;DHT22;352;48.626;9.238;2023-04-24T14:43:08;16.00;83.00
736;DHT22;352;48.626;9.238;2023-04-24T14:45:36;16.00;81.90
736;DHT22;352;48.626;9.238;2023-04-24T14:48:03;16.00;81.60
736;DHT22;352;48.626;9.238;2023-04-24T14:50:30;15.90;81.10
736;DHT22;352;48.626;9.238;2023-04-24T14:52:56;15.90;82.80
736;DHT22;352;48.626;9.238;2023-04-24T14:55:23;15.90;82.00
736;DHT22;352;48.626;9.238;2023-04-24T14:57:51;16.00;82.00
736;DHT22;352;48.626;9.238;2023-04-24T15:00:20;16.10;81.30
736;DHT22;352;48.626;9.238;2023-04-24T15:02:48;16.20;81.80
736;DHT22;352;48.626;9.238;2023-04-24T15:05:15;16.20;80.80
736;DHT22;352;48.626;9.238;2023-04-24T15:07:42;16.40;85.10
736;DHT22;352;48.626;9.238;2023-04-24T15:10:09;16.30;81.70
736;DHT22;352;48.626;9.238;2023-04-24T15:12:36;16.30;78.60
736;DHT22;352;48.626;9.238;2023-04-24T15:15:03;16.30;79.60
736;DHT22;352;48.626;9.238;2023-04-24T15:17:32;16.20;79.20
736;DHT22;352;48.626;9.238;2023-04-24T15:19:58;16.20;79.80
736;DHT22;352;48.626;9.238;2023-04-24T15:22:26;16.20;80.80
736;DHT22;352;48.626;9.238;2023-04-24T15:24:52;16.10;81.40
736;DHT22;352;48.626;9.238;2023-04-24T15:27:19;16.10;81.10
736;DHT22;352;48.626;9.238;2023-04-24T15:29:46;16.10;80.90
736;DHT22;352;48.626;9.238;2023-04-24T15:32:13;16.10;80.90
736;DHT22;352;48.626;9.238;2023-04-24T15:34:41;16.10;81.60
736;DHT22;352;48.626;9.238;2023-04-24T15:37:07;16.10;82.20
736;DHT22;352;48.626;9.238;2023-04-24T15:39:34;16.00;80.50
736;DHT22;352;48.626;9.238;2023-04-24T15:42:01;16.00;81.60
736;DHT22;352;48.626;9.238;2023-04-24T15:44:28;16.00;79.80
736;DHT22;352;48.626;9.238;2023-04-24T15:46:54;16.00;79.60
736;DHT22;352;48.626;9.238;2023-04-24T15:49:21;16.00;81.80
736;DHT22;352;48.626;9.238;2023-04-24T15:51:49;15.90;80.70
736;DHT22;352;48.626;9.238;2023-04-24T15:54:16;16.00;81.80
736;DHT22;352;48.626;9.238;2023-04-24T15:56:43;16.10;85.00
736;DHT22;352;48.626;9.238;2023-04-24T15:59:10;16.10;82.10
736;DHT22;352;48.626;9.238;2023-04-24T16:01:36;16.10;83.00
736;DHT22;352;48.626;9.238;2023-04-24T16:04:03;16.10;82.90
736;DHT22;352;48.626;9.238;2023-04-24T16:06:30;16.00;84.70
736;DHT22;352;48.626;9.238;2023-04-24T16:08:58;16.00;84.70
736;DHT22;352;48.626;9.238;2023-04-24T16:11:25;15.90;84.10
736;DHT22;352;48.626;9.238;2023-04-24T16:13:52;15.90;84.50
736;DHT22;352;48.626;9.238;2023-04-24T16:16:18;15.90;84.00
736;DHT22;352;48.626;9.238;2023-04-24T16:18:45;15.80;84.40
736;DHT22;352;48.626;9.238;2023-04-24T16:21:12;15.80;85.80
736;DHT22;352;48.626;9.238;2023-04-24T16:23:38;15.80;83.30
736;DHT22;352;48.626;9.238;2023-04-24T16:26:06;15.80;85.10
736;DHT22;352;48.626;9.238;2023-04-24T16:28:33;15.80;84.60
736;DHT22;352;48.626;9.238;2023-04-24T16:31:00;15.80;84.00
736;DHT22;352;48.626;9.238;2023-04-24T16:33:27;15.70;82.40
736;DHT22;352;48.626;9.238;2023-04-24T16:35:54;15.70;83.20
736;DHT22;352;48.626;9.238;2023-04-24T16:38:21;15.60;84.00